Time;durP1;ratioP1;P1;durP2;ratioP2;P2;SDS_P1;SDS_P2;PMS_P1;PMS_P2;Temp;Humidity;BMP_temperature;BMP_pressure;BME280_temperature;BME280_humidity;BME280_pressure;Samples;Min_cycle;Max_cycle;Signal;HPM_P1;HPM_P2
2023/11/23 00:00:01;;;;;;;10.60;5.65;;;;;;;;;;4965463;28;20037;-76
2023/11/23 00:02:29;;;;;;;8.95;5.65;;;;;;;;;;4969986;28;20107;-76
2023/11/23 00:04:55;;;;;;;10.63;5.50;;;;;;;;;;4962087;28;20506;-75
2023/11/23 00:07:20;;;;;;;10.07;5.57;;;;;;;;;;4967567;28;20039;-77
2023/11/23 00:09:45;;;;;;;9.80;5.72;;;;;;;;;;4983959;28;20039;-77
2023/11/23 00:12:10;;;;;;;9.63;5.28;;;;;;;;;;4981829;28;20031;-76
2023/11/23 00:14:36;;;;;;;10.65;6.45;;;;;;;;;;4969937;28;20110;-76
2023/11/23 00:17:02;;;;;;;10.32;5.40;;;;;;;;;;4967579;28;20061;-75
2023/11/23 00:19:27;;;;;;;8.20;4.60;;;;;;;;;;4960677;28;20042;-76
2023/11/23 00:21:52;;;;;;;9.02;5.15;;;;;;;;;;4979867;28;20043;-77
2023/11/23 00:24:17;;;;;;;9.50;5.40;;;;;;;;;;4967981;28;20037;-76
2023/11/23 00:26:43;;;;;;;8.18;5.22;;;;;;;;;;4967864;28;20032;-76
2023/11/23 00:29:09;;;;;;;10.25;5.22;;;;;;;;;;4988877;28;20125;-76
2023/11/23 00:31:34;;;;;;;9.10;5.10;;;;;;;;;;4990231;28;20122;-75
2023/11/23 00:33:59;;;;;;;9.55;4.70;;;;;;;;;;4970814;28;20106;-75
2023/11/23 00:36:24;;;;;;;8.80;4.95;;;;;;;;;;4967663;28;20041;-76
2023/11/23 00:38:49;;;;;;;9.95;5.15;;;;;;;;;;4992196;28;20039;-76
2023/11/23 00:41:15;;;;;;;7.70;4.43;;;;;;;;;;4974276;28;20046;-76
2023/11/23 00:43:40;;;;;;;10.85;5.28;;;;;;;;;;4969963;28;20506;-76
2023/11/23 00:46:05;;;;;;;8.43;4.60;;;;;;;;;;4970495;28;20384;-75
2023/11/23 00:48:30;;;;;;;8.60;4.68;;;;;;;;;;4975304;28;20118;-76
2023/11/23 00:50:57;;;;;;;9.75;4.78;;;;;;;;;;4970687;28;20510;-76
2023/11/23 00:53:22;;;;;;;8.30;4.55;;;;;;;;;;4980996;28;20043;-75
2023/11/23 00:55:48;;;;;;;8.80;4.97;;;;;;;;;;4966102;28;20031;-76
2023/11/23 00:58:13;;;;;;;8.45;4.93;;;;;;;;;;4970162;28;20039;-75
2023/11/23 01:00:39;;;;;;;7.88;4.50;;;;;;;;;;4967815;28;20089;-76
2023/11/23 01:03:04;;;;;;;8.60;4.60;;;;;;;;;;4985735;28;20037;-75
2023/11/23 01:05:29;;;;;;;9.82;4.18;;;;;;;;;;4969746;28;20061;-75
2023/11/23 01:07:56;;;;;;;8.80;3.67;;;;;;;;;;4969570;28;20023;-76
2023/11/23 01:10:22;;;;;;;8.27;4.15;;;;;;;;;;4994253;28;20376;-75
2023/11/23 01:12:49;;;;;;;7.57;4.07;;;;;;;;;;4974127;28;20077;-75
2023/11/23 01:15:14;;;;;;;8.48;4.38;;;;;;;;;;4969012;28;20084;-76
2023/11/23 01:17:39;;;;;;;6.47;4.38;;;;;;;;;;4964219;28;20038;-77
2023/11/23 01:20:05;;;;;;;7.50;4.53;;;;;;;;;;4970161;28;20035;-77
2023/11/23 01:22:30;;;;;;;7.25;4.00;;;;;;;;;;4981335;28;20126;-76
2023/11/23 01:24:56;;;;;;;7.80;4.22;;;;;;;;;;4989421;28;20119;-76
2023/11/23 01:27:21;;;;;;;6.88;3.60;;;;;;;;;;4968218;28;20038;-76
2023/11/23 01:29:46;;;;;;;5.72;3.25;;;;;;;;;;4962109;28;20114;-76
2023/11/23 01:32:11;;;;;;;6.15;3.30;;;;;;;;;;4994480;28;20062;-76
2023/11/23 01:34:36;;;;;;;7.07;3.83;;;;;;;;;;4990936;28;20027;-76
2023/11/23 01:37:02;;;;;;;6.18;3.50;;;;;;;;;;4967165;28;20027;-75
2023/11/23 01:39:27;;;;;;;6.97;4.20;;;;;;;;;;4964618;28;20050;-76
2023/11/23 01:41:53;;;;;;;7.32;4.07;;;;;;;;;;4993682;28;20028;-76
2023/11/23 01:44:19;;;;;;;6.93;4.03;;;;;;;;;;4963650;28;20059;-75
2023/11/23 01:46:45;;;;;;;7.70;3.90;;;;;;;;;;4968343;28;20043;-75
2023/11/23 01:49:10;;;;;;;6.75;3.60;;;;;;;;;;4975706;28;20034;-76
2023/11/23 01:51:35;;;;;;;5.95;3.47;;;;;;;;;;4968390;28;20098;-74
2023/11/23 01:54:00;;;;;;;6.72;3.67;;;;;;;;;;4965468;28;20096;-76
2023/11/23 01:56:26;;;;;;;8.02;4.18;;;;;;;;;;4966921;28;20034;-76
2023/11/23 01:58:52;;;;;;;6.75;3.95;;;;;;;;;;4968238;28;20035;-75
2023/11/23 02:01:17;;;;;;;6.13;3.78;;;;;;;;;;4982500;28;20031;-76
2023/11/23 02:03:43;;;;;;;6.70;4.05;;;;;;;;;;4967521;28;20068;-76
2023/11/23 02:06:09;;;;;;;6.00;3.35;;;;;;;;;;4990393;28;20125;-76
2023/11/23 02:08:35;;;;;;;6.82;3.65;;;;;;;;;;4966468;28;20059;-76
2023/11/23 02:11:00;;;;;;;6.72;3.20;;;;;;;;;;4962935;28;20054;-75
2023/11/23 02:13:25;;;;;;;7.22;3.20;;;;;;;;;;4979729;28;20054;-76
2023/11/23 02:15:51;;;;;;;6.78;3.45;;;;;;;;;;4971192;28;20441;-75
2023/11/23 02:18:16;;;;;;;6.72;3.75;;;;;;;;;;4969279;28;20050;-76
2023/11/23 02:20:46;;;;;;;8.20;3.50;;;;;;;;;;4986841;28;20035;-76
2023/11/23 02:23:11;;;;;;;5.97;3.28;;;;;;;;;;4980728;28;20043;-76
2023/11/23 02:25:36;;;;;;;6.32;3.10;;;;;;;;;;4982716;28;20125;-75
2023/11/23 02:28:03;;;;;;;5.93;3.50;;;;;;;;;;4969339;28;20475;-76
2023/11/23 02:30:29;;;;;;;5.78;3.50;;;;;;;;;;4990984;28;20031;-76
2023/11/23 02:32:54;;;;;;;6.13;3.53;;;;;;;;;;4967416;28;21511;-76
2023/11/23 02:35:20;;;;;;;6.25;3.55;;;;;;;;;;4964455;28;20027;-76
2023/11/23 02:37:45;;;;;;;7.68;3.58;;;;;;;;;;4984825;28;20084;-76
2023/11/23 02:40:11;;;;;;;5.15;2.95;;;;;;;;;;4989823;28;20062;-75
2023/11/23 02:42:36;;;;;;;5.97;3.60;;;;;;;;;;4970306;28;20038;-74
2023/11/23 02:45:02;;;;;;;6.80;3.55;;;;;;;;;;4967501;28;20027;-76
2023/11/23 02:47:27;;;;;;;5.55;2.97;;;;;;;;;;4970484;28;20126;-76
2023/11/23 02:49:52;;;;;;;6.10;3.35;;;;;;;;;;4963380;28;20062;-76
2023/11/23 02:52:18;;;;;;;6.32;3.55;;;;;;;;;;4971486;28;20039;-76
2023/11/23 02:54:43;;;;;;;5.65;2.92;;;;;;;;;;4963389;28;20106;-76
2023/11/23 02:57:09;;;;;;;5.72;3.00;;;;;;;;;;4968514;28;20057;-75
2023/11/23 02:59:34;;;;;;;5.93;3.13;;;;;;;;;;4965684;28;20041;-76
2023/11/23 03:01:59;;;;;;;5.18;2.92;;;;;;;;;;4975717;28;20042;-76
2023/11/23 03:04:25;;;;;;;5.75;3.20;;;;;;;;;;4984507;28;20029;-76
2023/11/23 03:06:50;;;;;;;6.10;3.72;;;;;;;;;;4966669;28;20641;-76
2023/11/23 03:09:19;;;;;;;7.30;3.58;;;;;;;;;;4963676;28;20035;-76
2023/11/23 03:11:44;;;;;;;6.25;3.40;;;;;;;;;;4986978;28;20035;-76
2023/11/23 03:14:09;;;;;;;5.13;2.92;;;;;;;;;;4966349;28;20038;-75
2023/11/23 03:16:35;;;;;;;7.57;4.45;;;;;;;;;;4962552;28;20034;-75
2023/11/23 03:19:00;;;;;;;6.25;3.50;;;;;;;;;;4968357;28;20524;-75
2023/11/23 03:21:25;;;;;;;8.25;4.53;;;;;;;;;;4974654;28;20041;-74
2023/11/23 03:23:50;;;;;;;10.90;3.15;;;;;;;;;;4974722;28;20050;-76
2023/11/23 03:26:16;;;;;;;5.72;3.00;;;;;;;;;;4968040;28;20118;-76
2023/11/23 03:28:41;;;;;;;4.95;2.67;;;;;;;;;;4966095;28;20499;-76
2023/11/23 03:31:06;;;;;;;4.88;2.72;;;;;;;;;;4966145;28;20117;-76
2023/11/23 03:33:32;;;;;;;6.50;3.58;;;;;;;;;;4970745;28;20077;-76
2023/11/23 03:35:57;;;;;;;5.13;2.65;;;;;;;;;;4961016;28;20113;-76
2023/11/23 03:38:23;;;;;;;5.35;2.53;;;;;;;;;;4975451;28;20062;-76
2023/11/23 03:40:48;;;;;;;5.85;3.30;;;;;;;;;;4991885;28;20035;-76
2023/11/23 03:43:14;;;;;;;5.05;3.03;;;;;;;;;;4972807;28;20035;-76
2023/11/23 03:45:39;;;;;;;4.78;2.90;;;;;;;;;;4965289;28;20582;-76
2023/11/23 03:48:04;;;;;;;5.63;2.90;;;;;;;;;;4962469;28;20026;-76
2023/11/23 03:50:30;;;;;;;5.78;2.88;;;;;;;;;;4961560;28;20069;-75
2023/11/23 03:52:55;;;;;;;5.35;3.05;;;;;;;;;;4970193;28;20074;-76
2023/11/23 03:55:20;;;;;;;5.68;2.90;;;;;;;;;;4966205;28;20034;-76
2023/11/23 03:57:48;;;;;;;5.20;3.05;;;;;;;;;;4976585;28;20046;-76
2023/11/23 04:00:14;;;;;;;7.00;3.03;;;;;;;;;;4965772;28;20376;-76
2023/11/23 04:02:39;;;;;;;4.70;2.85;;;;;;;;;;4965915;28;20100;-76
2023/11/23 04:05:04;;;;;;;5.60;2.95;;;;;;;;;;4971609;28;20054;-76
2023/11/23 04:07:30;;;;;;;6.10;2.88;;;;;;;;;;4982634;28;20058;-75
2023/11/23 04:09:56;;;;;;;8.18;2.80;;;;;;;;;;4969195;28;20085;-76
2023/11/23 04:12:21;;;;;;;5.30;2.70;;;;;;;;;;4970222;28;20120;-76
2023/11/23 04:14:46;;;;;;;6.30;2.53;;;;;;;;;;4982085;28;20031;-76
2023/11/23 04:17:12;;;;;;;5.65;2.80;;;;;;;;;;4991311;28;20046;-77
2023/11/23 04:19:37;;;;;;;4.63;2.58;;;;;;;;;;4979991;28;20031;-76
2023/11/23 04:22:06;;;;;;;4.82;2.42;;;;;;;;;;4971865;28;20041;-76
2023/11/23 04:24:32;;;;;;;4.47;2.45;;;;;;;;;;4971033;28;20047;-78
2023/11/23 04:26:57;;;;;;;6.45;2.63;;;;;;;;;;4967261;28;20039;-79
2023/11/23 04:29:22;;;;;;;5.43;3.00;;;;;;;;;;4986616;28;20406;-75
2023/11/23 04:31:47;;;;;;;5.53;2.65;;;;;;;;;;4967611;28;20038;-76
2023/11/23 04:34:12;;;;;;;4.60;2.78;;;;;;;;;;4970632;28;20117;-75
2023/11/23 04:36:38;;;;;;;5.55;2.90;;;;;;;;;;4968053;28;20069;-76
2023/11/23 04:39:03;;;;;;;4.97;2.75;;;;;;;;;;4963839;28;20092;-76
2023/11/23 04:41:29;;;;;;;5.85;3.08;;;;;;;;;;4968934;28;20092;-76
2023/11/23 04:43:54;;;;;;;4.60;2.60;;;;;;;;;;4964382;28;20415;-76
2023/11/23 04:46:20;;;;;;;4.35;2.53;;;;;;;;;;4967323;28;20113;-76
2023/11/23 04:48:47;;;;;;;3.85;2.20;;;;;;;;;;4962206;28;20479;-76
2023/11/23 04:51:12;;;;;;;5.93;2.58;;;;;;;;;;4968330;28;20140;-75
2023/11/23 04:53:37;;;;;;;5.70;2.80;;;;;;;;;;4988504;28;20507;-77
2023/11/23 04:56:03;;;;;;;6.03;3.15;;;;;;;;;;4965596;28;20423;-77
2023/11/23 04:58:28;;;;;;;5.32;3.05;;;;;;;;;;4977405;28;20043;-77
2023/11/23 05:00:53;;;;;;;5.45;2.63;;;;;;;;;;4969321;28;20043;-77
2023/11/23 05:03:19;;;;;;;5.18;2.95;;;;;;;;;;4981367;28;20034;-76
2023/11/23 05:05:44;;;;;;;4.75;2.83;;;;;;;;;;4966178;28;20062;-77
2023/11/23 05:08:09;;;;;;;5.15;3.10;;;;;;;;;;4966652;28;20031;-76
2023/11/23 05:10:34;;;;;;;5.50;3.00;;;;;;;;;;4967449;28;20035;-77
2023/11/23 05:12:59;;;;;;;6.30;3.38;;;;;;;;;;4986962;28;20567;-77
2023/11/23 05:15:25;;;;;;;6.00;2.88;;;;;;;;;;4972601;28;20027;-76
2023/11/23 05:17:50;;;;;;;8.02;3.03;;;;;;;;;;4962074;28;20027;-76
2023/11/23 05:20:16;;;;;;;4.72;2.65;;;;;;;;;;4970699;28;20056;-76
2023/11/23 05:22:41;;;;;;;4.53;2.50;;;;;;;;;;4967549;28;20038;-76
2023/11/23 05:25:07;;;;;;;10.45;6.05;;;;;;;;;;4964470;28;20031;-75
2023/11/23 05:27:33;;;;;;;6.10;3.03;;;;;;;;;;5000732;28;20093;-76
2023/11/23 05:29:58;;;;;;;6.30;2.75;;;;;;;;;;4982777;28;20169;-76
2023/11/23 05:32:23;;;;;;;5.22;2.70;;;;;;;;;;4977452;28;20027;-76
2023/11/23 05:34:49;;;;;;;6.30;4.03;;;;;;;;;;4964815;28;20038;-76
2023/11/23 05:37:14;;;;;;;6.32;3.40;;;;;;;;;;4965395;28;20617;-76
2023/11/23 05:39:39;;;;;;;4.88;2.63;;;;;;;;;;4969436;28;20030;-73
2023/11/23 05:42:04;;;;;;;4.57;2.45;;;;;;;;;;4973918;28;20028;-76
2023/11/23 05:44:30;;;;;;;5.45;2.70;;;;;;;;;;4969640;28;20117;-75
2023/11/23 05:46:55;;;;;;;4.78;2.65;;;;;;;;;;4970120;28;20027;-75
2023/11/23 05:49:21;;;;;;;4.65;2.60;;;;;;;;;;4966144;28;20037;-76
2023/11/23 05:51:47;;;;;;;6.18;3.00;;;;;;;;;;4966384;28;20031;-75
2023/11/23 05:54:12;;;;;;;6.15;3.05;;;;;;;;;;4984934;28;20050;-79
2023/11/23 05:56:38;;;;;;;5.10;2.70;;;;;;;;;;4968926;28;20030;-76
2023/11/23 05:59:03;;;;;;;8.52;3.08;;;;;;;;;;4995155;28;20046;-75
2023/11/23 06:01:29;;;;;;;8.85;4.65;;;;;;;;;;4993015;28;20096;-77
2023/11/23 06:03:54;;;;;;;6.30;3.70;;;;;;;;;;4967736;28;20035;-77
2023/11/23 06:06:20;;;;;;;4.63;2.80;;;;;;;;;;4982282;28;20066;-76
2023/11/23 06:08:45;;;;;;;5.43;3.15;;;;;;;;;;4963894;28;20077;-76
2023/11/23 06:11:10;;;;;;;5.60;3.05;;;;;;;;;;4983824;28;20038;-76
2023/11/23 06:13:35;;;;;;;5.60;3.17;;;;;;;;;;4984126;28;20041;-76
2023/11/23 06:16:01;;;;;;;6.38;2.97;;;;;;;;;;4965450;28;20054;-76
2023/11/23 06:18:28;;;;;;;5.57;2.80;;;;;;;;;;4966967;28;20035;-76
2023/11/23 06:20:53;;;;;;;7.00;3.60;;;;;;;;;;4968956;28;20510;-76
2023/11/23 06:23:18;;;;;;;6.63;3.30;;;;;;;;;;4977261;28;20070;-76
2023/11/23 06:25:44;;;;;;;5.97;2.88;;;;;;;;;;4966991;28;20041;-76
2023/11/23 06:28:09;;;;;;;7.93;2.97;;;;;;;;;;4969131;28;20387;-76
2023/11/23 06:30:35;;;;;;;8.52;4.10;;;;;;;;;;4964524;28;20112;-76
2023/11/23 06:33:00;;;;;;;5.78;3.08;;;;;;;;;;4988332;28;20717;-76
2023/11/23 06:35:25;;;;;;;6.25;3.20;;;;;;;;;;4967025;28;20087;-76
2023/11/23 06:37:50;;;;;;;5.68;3.03;;;;;;;;;;4988482;28;20139;-76
2023/11/23 06:40:16;;;;;;;6.55;3.30;;;;;;;;;;4961268;28;20066;-76
2023/11/23 06:42:42;;;;;;;7.50;3.45;;;;;;;;;;4968276;28;20621;-76
2023/11/23 06:45:08;;;;;;;6.53;3.50;;;;;;;;;;4968939;28;20096;-76
2023/11/23 06:47:33;;;;;;;5.78;3.45;;;;;;;;;;4966502;28;20035;-76
2023/11/23 06:49:58;;;;;;;6.13;3.63;;;;;;;;;;4961542;28;20032;-75
2023/11/23 06:52:23;;;;;;;5.47;3.63;;;;;;;;;;4985113;28;20044;-76
2023/11/23 06:54:48;;;;;;;6.03;3.50;;;;;;;;;;4966496;28;20503;-76
2023/11/23 06:57:14;;;;;;;5.72;3.00;;;;;;;;;;4978226;28;20108;-76
2023/11/23 06:59:39;;;;;;;5.32;3.15;;;;;;;;;;4962488;28;20035;-76
2023/11/23 07:02:04;;;;;;;4.90;3.08;;;;;;;;;;4971181;28;20498;-76
2023/11/23 07:04:30;;;;;;;6.30;3.35;;;;;;;;;;4974704;28;20049;-76
2023/11/23 07:06:56;;;;;;;9.70;3.92;;;;;;;;;;4968943;28;20026;-76
2023/11/23 07:09:21;;;;;;;5.97;3.38;;;;;;;;;;4964238;28;20050;-76
2023/11/23 07:11:46;;;;;;;7.45;3.65;;;;;;;;;;4962540;28;20034;-76
2023/11/23 07:14:11;;;;;;;6.25;3.30;;;;;;;;;;4986135;28;20089;-76
2023/11/23 07:16:37;;;;;;;6.57;3.42;;;;;;;;;;4965247;28;20070;-76
2023/11/23 07:19:02;;;;;;;6.30;3.60;;;;;;;;;;4984151;28;20060;-76
2023/11/23 07:21:28;;;;;;;5.65;2.70;;;;;;;;;;4968028;28;20035;-76
2023/11/23 07:23:53;;;;;;;5.78;3.08;;;;;;;;;;4967984;28;20459;-76
2023/11/23 07:26:18;;;;;;;6.97;3.10;;;;;;;;;;4965012;28;20034;-76
2023/11/23 07:28:43;;;;;;;6.75;3.13;;;;;;;;;;4965355;28;20692;-77
2023/11/23 07:31:09;;;;;;;7.50;3.65;;;;;;;;;;4982682;28;20465;-75
2023/11/23 07:33:35;;;;;;;5.25;3.28;;;;;;;;;;4990461;28;20028;-76
2023/11/23 07:36:02;;;;;;;6.68;3.67;;;;;;;;;;4967563;28;20570;-76
2023/11/23 07:38:27;;;;;;;6.35;3.67;;;;;;;;;;4963563;28;20445;-75
2023/11/23 07:40:52;;;;;;;6.78;3.65;;;;;;;;;;4967530;28;20031;-76
2023/11/23 07:43:18;;;;;;;5.47;3.10;;;;;;;;;;4987230;28;20147;-76
2023/11/23 07:45:45;;;;;;;6.85;3.78;;;;;;;;;;4961610;28;20031;-75
2023/11/23 07:48:14;;;;;;;6.72;3.38;;;;;;;;;;4965800;28;20030;-76
2023/11/23 07:50:39;;;;;;;6.30;3.58;;;;;;;;;;4973422;28;20505;-75
2023/11/23 07:53:05;;;;;;;6.43;3.50;;;;;;;;;;4992600;28;20054;-77
2023/11/23 07:55:32;;;;;;;6.68;4.28;;;;;;;;;;4960914;28;20035;-76
2023/11/23 07:57:58;;;;;;;9.05;3.97;;;;;;;;;;4960569;28;20054;-76
2023/11/23 08:00:24;;;;;;;7.15;4.00;;;;;;;;;;4977150;28;20486;-75
2023/11/23 08:02:49;;;;;;;7.80;3.90;;;;;;;;;;4968306;28;20129;-76
2023/11/23 08:05:15;;;;;;;9.15;4.03;;;;;;;;;;4967895;28;20041;-76
2023/11/23 08:07:41;;;;;;;6.22;3.60;;;;;;;;;;4965252;28;20030;-77
2023/11/23 08:10:06;;;;;;;6.47;3.85;;;;;;;;;;4977448;28;20105;-76
2023/11/23 08:12:32;;;;;;;7.85;3.88;;;;;;;;;;4960326;28;20502;-76
2023/11/23 08:14:59;;;;;;;6.82;4.13;;;;;;;;;;4957646;28;20027;-76
2023/11/23 08:17:24;;;;;;;6.32;3.63;;;;;;;;;;4963920;28;20064;-76
2023/11/23 08:19:50;;;;;;;7.88;4.15;;;;;;;;;;4966856;28;20041;-76
2023/11/23 08:22:19;;;;;;;6.82;4.00;;;;;;;;;;4977158;28;20035;-76
2023/11/23 08:24:44;;;;;;;6.55;4.00;;;;;;;;;;4964157;28;20035;-76
2023/11/23 08:27:10;;;;;;;8.27;4.03;;;;;;;;;;4961142;28;20570;-75
2023/11/23 08:29:35;;;;;;;9.20;4.07;;;;;;;;;;4968835;28;20027;-76
2023/11/23 08:32:01;;;;;;;7.07;3.88;;;;;;;;;;4963003;28;20023;-77
2023/11/23 08:34:26;;;;;;;7.03;3.95;;;;;;;;;;4985778;28;20054;-76
2023/11/23 08:36:52;;;;;;;6.82;3.75;;;;;;;;;;4960834;28;20039;-76
2023/11/23 08:39:19;;;;;;;5.82;3.72;;;;;;;;;;4966437;28;20431;-75
2023/11/23 08:41:44;;;;;;;6.53;3.67;;;;;;;;;;4968820;28;20495;-76
2023/11/23 08:44:09;;;;;;;6.82;3.30;;;;;;;;;;4970265;28;20058;-75
2023/11/23 08:46:39;;;;;;;6.60;3.80;;;;;;;;;;4965294;28;20042;-76
2023/11/23 08:49:05;;;;;;;7.53;3.95;;;;;;;;;;4969639;28;20126;-76
2023/11/23 08:51:30;;;;;;;8.88;4.50;;;;;;;;;;4978444;28;20506;-76
2023/11/23 08:53:55;;;;;;;7.45;3.90;;;;;;;;;;4974986;28;20039;-76
2023/11/23 08:56:21;;;;;;;5.85;3.38;;;;;;;;;;4983609;28;20089;-76
2023/11/23 08:58:46;;;;;;;7.30;3.65;;;;;;;;;;4967273;28;20399;-75
2023/11/23 09:01:11;;;;;;;7.70;3.75;;;;;;;;;;4969741;28;20065;-76
2023/11/23 09:03:36;;;;;;;7.82;3.95;;;;;;;;;;4979964;28;20399;-76
2023/11/23 09:06:02;;;;;;;6.20;3.63;;;;;;;;;;4962448;28;20045;-75
2023/11/23 09:08:27;;;;;;;8.32;3.35;;;;;;;;;;4960691;28;20066;-76
2023/11/23 09:10:54;;;;;;;8.27;3.92;;;;;;;;;;4970242;28;20039;-76
2023/11/23 09:13:19;;;;;;;10.38;4.03;;;;;;;;;;4988516;28;20027;-77
2023/11/23 09:15:44;;;;;;;6.85;3.85;;;;;;;;;;4966091;28;20038;-75
2023/11/23 09:18:10;;;;;;;6.53;3.55;;;;;;;;;;4966529;28;20045;-76
2023/11/23 09:20:35;;;;;;;7.28;3.53;;;;;;;;;;4971618;28;20076;-76
2023/11/23 09:23:03;;;;;;;6.97;3.58;;;;;;;;;;4969811;28;20096;-76
2023/11/23 09:25:33;;;;;;;6.07;3.67;;;;;;;;;;4970703;28;20114;-75
2023/11/23 09:27:58;;;;;;;7.70;4.18;;;;;;;;;;4967601;28;20050;-75
2023/11/23 09:30:23;;;;;;;6.88;3.40;;;;;;;;;;4975632;28;20125;-76
2023/11/23 09:32:49;;;;;;;6.80;3.85;;;;;;;;;;4978418;28;20035;-76
2023/11/23 09:35:14;;;;;;;7.47;3.97;;;;;;;;;;4970376;28;20404;-75
2023/11/23 09:37:40;;;;;;;6.10;3.30;;;;;;;;;;4969068;28;20048;-76
2023/11/23 09:40:07;;;;;;;6.25;3.28;;;;;;;;;;4996725;28;20029;-76
2023/11/23 09:42:35;;;;;;;5.80;3.03;;;;;;;;;;4978846;28;20088;-76
2023/11/23 09:45:02;;;;;;;5.68;3.17;;;;;;;;;;4966346;28;20062;-75
2023/11/23 09:47:31;;;;;;;4.32;2.58;;;;;;;;;;5005909;28;20551;-76
2023/11/23 09:49:58;;;;;;;7.15;3.65;;;;;;;;;;4981462;28;20501;-75
2023/11/23 09:52:23;;;;;;;5.60;3.08;;;;;;;;;;4967912;28;20443;-75
2023/11/23 09:54:48;;;;;;;6.65;3.45;;;;;;;;;;4979245;28;20034;-76
2023/11/23 09:57:14;;;;;;;5.93;3.47;;;;;;;;;;4967001;28;20507;-77
2023/11/23 09:59:39;;;;;;;6.18;3.42;;;;;;;;;;4963955;28;20038;-76
2023/11/23 10:02:09;;;;;;;5.85;3.05;;;;;;;;;;4972973;28;20035;-76
2023/11/23 10:04:34;;;;;;;7.38;3.72;;;;;;;;;;4972242;28;20027;-76
2023/11/23 10:07:01;;;;;;;4.82;2.70;;;;;;;;;;4968823;28;20724;-76
2023/11/23 10:09:26;;;;;;;8.75;3.50;;;;;;;;;;4966556;28;20434;-76
2023/11/23 10:11:54;;;;;;;6.55;3.00;;;;;;;;;;4985277;28;20088;-76
2023/11/23 10:14:19;;;;;;;5.20;2.95;;;;;;;;;;4975801;28;20483;-76
2023/11/23 10:16:45;;;;;;;9.35;3.95;;;;;;;;;;4964538;28;20053;-74
2023/11/23 10:19:20;;;;;;;7.53;4.20;;;;;;;;;;4968351;28;20031;-77
2023/11/23 10:21:45;;;;;;;6.38;3.70;;;;;;;;;;4967039;28;20165;-76
2023/11/23 10:24:12;;;;;;;5.07;2.95;;;;;;;;;;4982254;28;20065;-76
2023/11/23 10:26:37;;;;;;;6.47;2.88;;;;;;;;;;4970366;28;20031;-76
2023/11/23 10:29:03;;;;;;;7.28;3.10;;;;;;;;;;4964371;28;20038;-76
2023/11/23 10:31:30;;;;;;;7.07;3.88;;;;;;;;;;4966327;28;20437;-76
2023/11/23 10:33:56;;;;;;;6.20;3.08;;;;;;;;;;4985687;28;20498;-76
2023/11/23 10:36:23;;;;;;;4.97;3.05;;;;;;;;;;4965442;28;20031;-77
2023/11/23 10:38:49;;;;;;;6.05;3.00;;;;;;;;;;4965518;28;20467;-76
2023/11/23 10:41:15;;;;;;;7.03;3.47;;;;;;;;;;4964136;28;20035;-77
2023/11/23 10:43:50;;;;;;;4.78;2.53;;;;;;;;;;4970826;28;20112;-77
2023/11/23 10:46:38;;;;;;;6.47;3.00;;;;;;;;;;4965549;28;20402;-79
2023/11/23 10:49:05;;;;;;;7.30;2.63;;;;;;;;;;4970992;28;20078;-79
2023/11/23 10:51:30;;;;;;;7.20;3.35;;;;;;;;;;4969574;28;20113;-76
2023/11/23 10:53:56;;;;;;;5.22;2.60;;;;;;;;;;4974969;28;20069;-75
2023/11/23 10:56:23;;;;;;;6.05;2.95;;;;;;;;;;4968544;28;20035;-76
2023/11/23 10:58:49;;;;;;;5.28;2.70;;;;;;;;;;4954330;28;20118;-77
2023/11/23 11:01:21;;;;;;;6.00;3.10;;;;;;;;;;4961695;28;20102;-76
2023/11/23 11:03:46;;;;;;;5.80;3.20;;;;;;;;;;4978603;28;20039;-77
2023/11/23 11:06:12;;;;;;;10.07;3.88;;;;;;;;;;4968452;28;20027;-77
2023/11/23 11:08:38;;;;;;;5.22;3.08;;;;;;;;;;4963651;28;20031;-75
2023/11/23 11:11:13;;;;;;;5.45;3.22;;;;;;;;;;4963071;28;20613;-77
2023/11/23 11:13:44;;;;;;;6.90;2.58;;;;;;;;;;4980139;28;20035;-75
2023/11/23 11:16:14;;;;;;;5.68;2.83;;;;;;;;;;4968860;28;20103;-76
2023/11/23 11:18:39;;;;;;;7.43;3.15;;;;;;;;;;4973283;28;20121;-76
2023/11/23 11:21:09;;;;;;;8.63;3.75;;;;;;;;;;4969709;28;20164;-76
2023/11/23 11:23:38;;;;;;;7.88;3.83;;;;;;;;;;4972191;28;20038;-76
2023/11/23 11:26:24;;;;;;;5.72;3.30;;;;;;;;;;4968558;28;20038;-76
2023/11/23 11:28:59;;;;;;;5.50;3.50;;;;;;;;;;4967116;28;20087;-77
2023/11/23 11:31:33;;;;;;;7.78;3.40;;;;;;;;;;4968937;28;20069;-77
2023/11/23 11:33:59;;;;;;;5.35;3.47;;;;;;;;;;4999727;28;20065;-76
2023/11/23 11:36:25;;;;;;;6.03;3.15;;;;;;;;;;4967746;28;20070;-76
2023/11/23 11:38:54;;;;;;;8.45;3.65;;;;;;;;;;4965923;28;20034;-76
2023/11/23 11:41:20;;;;;;;6.10;3.33;;;;;;;;;;4968222;28;20027;-77
2023/11/23 11:43:46;;;;;;;7.30;3.33;;;;;;;;;;4986336;28;20037;-77
2023/11/23 11:46:12;;;;;;;7.13;3.33;;;;;;;;;;4969017;28;20479;-77
2023/11/23 11:48:37;;;;;;;7.28;3.55;;;;;;;;;;4966211;28;20065;-77
2023/11/23 11:51:04;;;;;;;6.13;3.40;;;;;;;;;;4969612;28;20442;-75
2023/11/23 11:53:30;;;;;;;6.43;3.50;;;;;;;;;;4979298;28;20047;-76
2023/11/23 11:55:56;;;;;;;6.65;2.85;;;;;;;;;;4959248;28;20027;-77
2023/11/23 11:58:21;;;;;;;6.50;3.47;;;;;;;;;;4967799;28;20101;-76
2023/11/23 12:00:46;;;;;;;5.60;3.70;;;;;;;;;;4975247;28;20034;-78
2023/11/23 12:03:12;;;;;;;6.38;3.78;;;;;;;;;;4971199;28;20027;-77
2023/11/23 12:05:40;;;;;;;5.10;3.30;;;;;;;;;;4963646;28;20023;-78
2023/11/23 12:08:06;;;;;;;5.90;3.58;;;;;;;;;;4959510;28;20039;-77
2023/11/23 12:10:38;;;;;;;7.35;3.22;;;;;;;;;;4973619;28;20028;-77
2023/11/23 12:13:03;;;;;;;6.75;3.17;;;;;;;;;;4972136;28;20586;-77
2023/11/23 12:15:29;;;;;;;6.63;3.17;;;;;;;;;;4963796;28;20042;-76
2023/11/23 12:17:55;;;;;;;5.10;2.85;;;;;;;;;;4961140;28;20031;-77
2023/11/23 12:20:22;;;;;;;6.63;3.38;;;;;;;;;;4969665;28;20099;-76
2023/11/23 12:22:47;;;;;;;5.65;3.63;;;;;;;;;;4978255;28;20070;-75
2023/11/23 12:25:12;;;;;;;6.50;4.65;;;;;;;;;;4977398;28;20062;-78
2023/11/23 12:27:41;;;;;;;6.60;3.85;;;;;;;;;;4986741;22;20133;-78
2023/11/23 12:30:07;;;;;;;6.30;3.60;;;;;;;;;;4974418;28;20035;-78
2023/11/23 12:32:32;;;;;;;5.30;3.10;;;;;;;;;;4985795;28;20031;-78
2023/11/23 12:34:57;;;;;;;5.55;3.13;;;;;;;;;;4978729;28;20031;-78
2023/11/23 12:37:23;;;;;;;6.95;3.60;;;;;;;;;;4980554;28;20041;-78
2023/11/23 12:39:49;;;;;;;5.63;3.38;;;;;;;;;;4985138;28;20031;-78
2023/11/23 12:42:14;;;;;;;7.93;3.42;;;;;;;;;;5001892;28;20042;-78
2023/11/23 12:44:39;;;;;;;5.32;3.53;;;;;;;;;;4993871;28;20375;-78
2023/11/23 12:47:04;;;;;;;6.20;3.53;;;;;;;;;;4987400;28;20046;-78
2023/11/23 12:49:29;;;;;;;5.97;3.63;;;;;;;;;;4986799;28;20049;-78
2023/11/23 12:51:55;;;;;;;7.50;3.88;;;;;;;;;;4984152;28;20034;-78
2023/11/23 12:54:21;;;;;;;6.70;3.70;;;;;;;;;;4999914;28;20506;-78
2023/11/23 12:56:46;;;;;;;6.95;4.03;;;;;;;;;;5000299;28;20165;-78
2023/11/23 12:59:12;;;;;;;6.57;4.28;;;;;;;;;;4991933;28;20376;-78
2023/11/23 13:01:38;;;;;;;8.30;3.50;;;;;;;;;;4999451;28;20024;-78
2023/11/23 13:04:04;;;;;;;5.78;3.80;;;;;;;;;;5004302;28;20035;-78
2023/11/23 13:06:29;;;;;;;9.05;4.22;;;;;;;;;;4997496;28;20084;-78
2023/11/23 13:08:55;;;;;;;5.28;3.30;;;;;;;;;;4991742;28;20121;-78
2023/11/23 13:11:20;;;;;;;6.05;3.47;;;;;;;;;;4992707;28;20027;-78
2023/11/23 13:13:47;;;;;;;7.57;4.07;;;;;;;;;;4998727;28;20026;-77
2023/11/23 13:16:14;;;;;;;7.70;3.72;;;;;;;;;;4987548;28;20023;-78
2023/11/23 13:18:40;;;;;;;9.05;3.90;;;;;;;;;;5002641;28;20041;-77
2023/11/23 13:21:05;;;;;;;7.22;3.50;;;;;;;;;;4992022;28;20066;-78
2023/11/23 13:23:30;;;;;;;7.35;3.83;;;;;;;;;;4994819;28;20097;-77
2023/11/23 13:26:00;;;;;;;6.40;4.00;;;;;;;;;;4970533;28;20033;-78
2023/11/23 13:28:26;;;;;;;9.77;4.05;;;;;;;;;;4990563;28;20053;-78
2023/11/23 13:30:51;;;;;;;7.75;3.95;;;;;;;;;;4986312;28;20450;-78
2023/11/23 13:33:22;;;;;;;5.78;3.88;;;;;;;;;;4995426;28;20023;-78
2023/11/23 13:35:47;;;;;;;7.63;3.80;;;;;;;;;;5005662;28;20026;-78
2023/11/23 13:38:13;;;;;;;7.00;3.17;;;;;;;;;;4991063;28;20092;-78
2023/11/23 13:40:38;;;;;;;6.47;4.30;;;;;;;;;;4985906;28;20101;-78
2023/11/23 13:43:03;;;;;;;6.68;3.85;;;;;;;;;;5003040;28;20078;-78
2023/11/23 13:45:29;;;;;;;6.45;3.67;;;;;;;;;;4989215;28;20026;-78
2023/11/23 13:47:54;;;;;;;8.32;4.38;;;;;;;;;;4987331;28;20030;-78
2023/11/23 13:50:20;;;;;;;8.52;4.47;;;;;;;;;;4992620;28;20080;-78
2023/11/23 13:52:45;;;;;;;6.63;4.22;;;;;;;;;;5000893;28;20068;-78
2023/11/23 13:55:10;;;;;;;8.15;4.13;;;;;;;;;;4994855;28;20039;-78
2023/11/23 13:57:36;;;;;;;7.60;4.55;;;;;;;;;;5002394;28;20113;-78
2023/11/23 14:00:11;;;;;;;6.50;4.53;;;;;;;;;;4983904;28;20062;-78
2023/11/23 14:02:38;;;;;;;7.93;4.88;;;;;;;;;;4987539;28;20049;-78
2023/11/23 14:05:05;;;;;;;7.30;4.10;;;;;;;;;;4991791;28;20063;-78
2023/11/23 14:07:30;;;;;;;6.95;4.22;;;;;;;;;;4990335;28;20034;-78
2023/11/23 14:09:56;;;;;;;7.68;4.25;;;;;;;;;;4999286;28;20030;-78
2023/11/23 14:12:22;;;;;;;9.15;3.90;;;;;;;;;;4987090;28;20027;-78
2023/11/23 14:14:48;;;;;;;8.65;4.57;;;;;;;;;;4988590;28;20034;-78
2023/11/23 14:17:13;;;;;;;7.22;4.07;;;;;;;;;;5002673;28;20032;-77
2023/11/23 14:19:39;;;;;;;7.80;4.40;;;;;;;;;;4996037;28;20523;-78
2023/11/23 14:22:04;;;;;;;8.90;3.95;;;;;;;;;;4988425;28;20038;-77
2023/11/23 14:24:29;;;;;;;8.95;4.25;;;;;;;;;;4992145;28;20041;-78
2023/11/23 14:26:55;;;;;;;7.53;4.07;;;;;;;;;;4980468;28;20039;-78
2023/11/23 14:29:20;;;;;;;8.73;4.45;;;;;;;;;;4984793;28;20526;-78
2023/11/23 14:31:49;;;;;;;6.22;3.97;;;;;;;;;;4990681;28;20529;-78
2023/11/23 14:34:16;;;;;;;6.55;4.30;;;;;;;;;;4994000;28;20053;-78